Time;durP1;ratioP1;P1;durP2;ratioP2;P2;SDS_P1;SDS_P2;PMS_P1;PMS_P2;Temp;Humidity;BMP_temperature;BMP_pressure;BME280_temperature;BME280_humidity;BME280_pressure;Samples;Min_cycle;Max_cycle;Signal;HPM_P1;HPM_P2
2022/12/23 00:01:21;;;;;;;23.23;9.30;;;;;;;11.32;100.00;99973.03;5005585;28;20120;-71
2022/12/23 00:03:48;;;;;;;11.98;5.72;;;;;;;11.29;100.00;99984.94;5024151;28;20049;-71
2022/12/23 00:06:16;;;;;;;18.88;5.88;;;;;;;11.33;100.00;99982.88;5021531;28;20482;-71
2022/12/23 00:08:43;;;;;;;30.98;8.60;;;;;;;11.37;100.00;99971.75;5027321;28;20076;-71
2022/12/23 00:11:13;;;;;;;15.13;5.05;;;;;;;11.27;100.00;99978.25;5027073;28;20506;-73
2022/12/23 00:16:25;;;;;;;29.88;8.75;;;;;;;11.38;100.00;99984.41;5015818;28;20054;-71
2022/12/23 00:18:52;;;;;;;8.95;3.30;;;;;;;11.32;100.00;99984.09;5007530;28;20428;-72
2022/12/23 00:21:19;;;;;;;28.88;9.57;;;;;;;11.38;100.00;99976.88;5015786;28;20041;-71
2022/12/23 00:23:48;;;;;;;26.15;8.27;;;;;;;11.37;100.00;99983.59;5015754;28;20080;-72
2022/12/23 00:26:16;;;;;;;27.00;5.25;;;;;;;11.34;100.00;99976.13;5012888;28;20056;-72
2022/12/23 00:28:43;;;;;;;14.18;4.18;;;;;;;11.22;100.00;99967.63;5025294;28;20422;-72
2022/12/23 00:31:10;;;;;;;28.98;9.07;;;;;;;11.28;100.00;99975.06;5008283;28;20523;-73
2022/12/23 00:33:43;;;;;;;10.20;3.42;;;;;;;11.18;100.00;99969.69;5004762;28;20061;-72
2022/12/23 00:36:13;;;;;;;14.70;5.85;;;;;;;11.24;100.00;99977.09;5006969;28;20531;-72
2022/12/23 00:44:11;;;;;;;7.97;2.88;;;;;;;11.16;100.00;99977.59;5021068;28;20068;-70
2022/12/23 00:46:38;;;;;;;14.35;4.93;;;;;;;11.14;100.00;99971.72;5010839;28;20053;-73
2022/12/23 00:51:50;;;;;;;6.13;2.72;;;;;;;11.12;100.00;99971.34;5017745;28;20048;-72
2022/12/23 00:54:16;;;;;;;26.60;6.25;;;;;;;11.07;100.00;99977.38;5016578;28;20045;-72
2022/12/23 00:56:43;;;;;;;8.73;3.40;;;;;;;11.09;100.00;99988.78;5029928;28;20137;-71
2022/12/23 00:59:10;;;;;;;25.02;6.28;;;;;;;11.19;100.00;99985.88;5010293;28;20046;-73
2022/12/23 01:07:07;;;;;;;4.97;2.40;;;;;;;11.06;100.00;99995.94;5031216;28;20045;-71
2022/12/23 01:09:34;;;;;;;17.05;6.15;;;;;;;11.03;100.00;99996.03;5028066;28;20643;-71
2022/12/23 01:12:00;;;;;;;21.77;4.80;;;;;;;11.01;100.00;99995.66;5002630;28;20050;-71
2022/12/23 01:14:27;;;;;;;29.65;8.50;;;;;;;11.04;100.00;99989.28;5009461;28;20061;-71
2022/12/23 01:16:53;;;;;;;7.95;3.00;;;;;;;10.99;100.00;99998.81;5029273;28;20534;-72
2022/12/23 01:19:20;;;;;;;15.05;5.25;;;;;;;11.02;100.00;100003.53;5031081;28;20053;-72
2022/12/23 01:21:47;;;;;;;19.23;4.68;;;;;;;10.98;100.00;100011.09;5021261;28;20049;-74
2022/12/23 01:24:13;;;;;;;25.52;6.93;;;;;;;10.97;100.00;100001.22;5018591;28;20570;-71
2022/12/23 01:26:40;;;;;;;12.50;5.38;;;;;;;10.96;100.00;100001.63;5021102;28;20049;-72
2022/12/23 01:29:06;;;;;;;22.73;7.28;;;;;;;10.95;100.00;100014.69;5026183;28;20053;-71
2022/12/23 01:31:33;;;;;;;10.27;3.85;;;;;;;10.93;100.00;100013.56;5014268;28;20136;-73
2022/12/23 01:34:00;;;;;;;22.65;8.60;;;;;;;10.95;100.00;100016.69;5009609;28;20041;-71
2022/12/23 01:36:26;;;;;;;13.20;4.95;;;;;;;10.93;100.00;100019.84;5025530;28;20049;-70
2022/12/23 01:38:55;;;;;;;15.82;5.85;;;;;;;10.93;100.00;100030.16;5010105;28;20054;-71
2022/12/23 01:44:50;;;;;;;24.75;7.50;;;;;;;11.03;100.00;100034.78;5025031;28;20070;-72
2022/12/23 01:47:38;;;;;;;19.92;7.10;;;;;;;10.94;100.00;100037.25;5008983;28;20048;-70
2022/12/23 01:50:25;;;;;;;19.48;7.00;;;;;;;10.94;100.00;100035.28;5018249;28;20570;-70
2022/12/23 01:53:16;;;;;;;20.30;7.65;;;;;;;10.98;100.00;100036.03;5015139;28;20132;-71
2022/12/23 01:55:54;;;;;;;14.65;4.78;;;;;;;10.96;100.00;100045.91;5019482;28;20057;-74
2022/12/23 01:58:35;;;;;;;9.80;3.95;;;;;;;10.97;100.00;100037.19;5030157;28;20049;-70
2022/12/23 02:03:49;;;;;;;;;;;;;;;10.96;100.00;100040.38;5017293;28;20423;-71
2022/12/23 02:09:34;;;;;;;8.60;3.90;;;;;;;10.97;100.00;100039.19;4989886;28;20057;-71
2022/12/23 02:12:36;;;;;;;21.77;8.45;;;;;;;10.95;100.00;100041.59;5009776;28;20052;-70
2022/12/23 02:18:12;;;;;;;;;;;;;;;10.99;100.00;100051.41;5023377;28;20054;-70
2022/12/23 02:21:03;;;;;;;13.98;6.80;;;;;;;10.93;100.00;100044.00;5011174;28;19925;-71
2022/12/23 02:23:49;;;;;;;26.33;12.35;;;;;;;11.01;100.00;100045.47;5028938;28;20041;-71
2022/12/23 02:26:21;;;;;;;20.67;8.02;;;;;;;10.96;100.00;100046.72;5002126;28;20046;-71
2022/12/23 02:29:06;;;;;;;35.22;15.43;;;;;;;11.04;100.00;100058.47;5011032;28;20108;-71
2022/12/23 02:32:10;;;;;;;36.47;15.47;;;;;;;11.02;100.00;100058.09;5018130;28;20056;-71
2022/12/23 02:34:36;;;;;;;9.77;5.28;;;;;;;11.00;100.00;100052.97;5016633;28;20053;-71
2022/12/23 02:37:17;;;;;;;14.48;6.65;;;;;;;11.04;100.00;100064.00;5029358;28;20064;-72
2022/12/23 02:40:10;;;;;;;19.55;6.93;;;;;;;10.94;100.00;100060.19;5029219;28;20061;-71
2022/12/23 02:42:56;;;;;;;23.27;10.23;;;;;;;10.97;100.00;100073.19;5018060;28;20058;-71
2022/12/23 02:45:34;;;;;;;25.65;9.27;;;;;;;11.02;100.00;100071.94;5012609;28;20054;-70
2022/12/23 02:48:11;;;;;;;30.08;13.98;;;;;;;11.04;100.00;100078.66;5020768;28;20053;-72
2022/12/23 02:50:40;;;;;;;20.70;6.32;;;;;;;11.06;100.00;100083.75;5011411;28;20511;-72
2022/12/23 02:53:19;;;;;;;16.05;7.50;;;;;;;11.03;100.00;100082.59;5008456;28;20045;-70
2022/12/23 02:55:47;;;;;;;45.60;17.88;;;;;;;11.10;100.00;100090.81;5025441;28;20049;-72
2022/12/23 02:58:16;;;;;;;27.67;10.98;;;;;;;11.07;100.00;100088.88;5016884;28;20050;-72
2022/12/23 03:00:45;;;;;;;19.60;8.32;;;;;;;11.06;100.00;100086.50;5016361;28;20049;-73
2022/12/23 03:03:12;;;;;;;26.45;10.75;;;;;;;11.01;100.00;100087.78;5012490;28;20126;-70
2022/12/23 03:05:43;;;;;;;12.05;4.47;;;;;;;10.98;100.00;100093.34;5008331;28;20507;-70
2022/12/23 03:08:17;;;;;;;15.55;6.22;;;;;;;10.95;100.00;100100.50;5014975;28;20136;-70
2022/12/23 03:11:03;;;;;;;12.85;5.10;;;;;;;10.94;100.00;100095.38;5019749;28;20429;-71
2022/12/23 03:13:50;;;;;;;18.30;7.65;;;;;;;10.94;100.00;100110.03;5020884;28;20057;-70
2022/12/23 03:16:28;;;;;;;33.80;14.85;;;;;;;10.95;100.00;100094.19;5012166;28;20050;-71
2022/12/23 03:19:07;;;;;;;30.58;12.07;;;;;;;10.96;100.00;100104.03;5027848;28;20053;-70
2022/12/23 03:21:58;;;;;;;20.08;8.57;;;;;;;10.92;100.00;100109.63;5004541;28;20807;-72
2022/12/23 03:24:48;;;;;;;13.65;5.78;;;;;;;10.97;100.00;100114.69;5013365;28;20056;-72
2022/12/23 03:27:29;;;;;;;21.73;6.43;;;;;;;10.97;100.00;100119.47;5016085;28;20041;-72
2022/12/23 03:29:58;;;;;;;20.90;7.68;;;;;;;10.98;100.00;100129.34;5023251;28;20072;-72
2022/12/23 03:32:29;;;;;;;12.48;5.85;;;;;;;10.99;100.00;100139.19;5016771;28;20056;-72
2022/12/23 03:34:59;;;;;;;21.73;9.85;;;;;;;10.99;100.00;100134.47;5026834;28;20057;-72
2022/12/23 03:37:28;;;;;;;37.03;10.05;;;;;;;10.97;100.00;100134.06;5019012;28;20716;-72
2022/12/23 03:40:05;;;;;;;20.35;8.35;;;;;;;10.95;100.00;100133.72;5018955;28;20072;-71
2022/12/23 03:42:36;;;;;;;17.10;7.40;;;;;;;10.97;100.00;100130.53;5024167;28;20045;-74
2022/12/23 03:45:10;;;;;;;26.55;9.90;;;;;;;10.95;100.00;100130.16;5024362;28;20747;-70
2022/12/23 03:48:16;;;;;;;13.07;6.85;;;;;;;10.94;100.00;100132.16;5006085;28;20053;-70
2022/12/23 03:50:47;;;;;;;13.43;6.30;;;;;;;10.95;100.00;100132.94;5016325;28;20049;-72
2022/12/23 03:53:22;;;;;;;19.08;7.80;;;;;;;10.95;100.00;100141.22;5021413;28;20405;-71
2022/12/23 03:55:55;;;;;;;25.42;9.40;;;;;;;10.96;100.00;100123.41;5016446;28;20053;-70
2022/12/23 03:58:30;;;;;;;15.45;5.82;;;;;;;10.96;100.00;100137.25;5019100;28;20096;-72
2022/12/23 04:01:06;;;;;;;28.67;11.35;;;;;;;10.96;100.00;100140.81;5018017;28;20499;-71
2022/12/23 04:03:36;;;;;;;12.20;5.32;;;;;;;10.98;100.00;100130.13;5025972;28;20515;-72
2022/12/23 04:06:09;;;;;;;16.20;7.53;;;;;;;10.92;100.00;100112.41;5006914;28;20388;-72
2022/12/23 04:08:38;;;;;;;28.95;12.45;;;;;;;10.99;100.00;100125.34;5027389;28;20060;-70
2022/12/23 04:11:05;;;;;;;19.77;8.38;;;;;;;10.92;100.00;100134.53;5027810;28;20052;-71
2022/12/23 04:13:31;;;;;;;34.58;16.30;;;;;;;10.98;100.00;100126.56;5021958;28;20049;-71
2022/12/23 04:15:59;;;;;;;41.58;19.35;;;;;;;11.02;100.00;100132.84;5027319;28;20603;-73
2022/12/23 04:18:27;;;;;;;24.50;11.45;;;;;;;10.94;100.00;100137.69;5014473;28;20523;-71
2022/12/23 04:20:54;;;;;;;31.10;14.07;;;;;;;10.98;100.00;100132.09;5023702;28;20057;-70
2022/12/23 04:23:20;;;;;;;14.93;5.82;;;;;;;10.95;100.00;100133.72;5021443;28;20049;-71
2022/12/23 04:25:47;;;;;;;28.25;12.35;;;;;;;10.93;100.00;100136.09;5011960;28;20058;-71
2022/12/23 04:28:13;;;;;;;14.02;5.90;;;;;;;10.94;100.00;100139.66;5016418;28;20058;-70
2022/12/23 04:30:40;;;;;;;20.23;6.25;;;;;;;10.96;100.00;100148.31;5020261;28;20049;-69
2022/12/23 04:33:10;;;;;;;26.23;12.25;;;;;;;10.96;100.00;100140.81;5019491;28;20057;-71
2022/12/23 04:35:36;;;;;;;20.67;9.45;;;;;;;10.92;100.00;100144.81;5021424;28;20053;-70
2022/12/23 04:38:03;;;;;;;22.65;9.98;;;;;;;10.92;100.00;100136.53;5031757;28;20412;-70
2022/12/23 04:40:29;;;;;;;20.20;7.78;;;;;;;10.91;100.00;100132.97;5019338;28;20050;-71
2022/12/23 04:42:56;;;;;;;29.13;12.27;;;;;;;10.95;100.00;100138.47;5013336;28;20499;-71
2022/12/23 04:45:22;;;;;;;18.83;7.60;;;;;;;10.92;100.00;100130.97;5010608;28;20046;-71
2022/12/23 04:47:49;;;;;;;17.02;6.57;;;;;;;10.97;100.00;100136.06;5017663;28;20061;-72
2022/12/23 04:50:15;;;;;;;15.15;7.38;;;;;;;10.94;100.00;100145.19;5010548;28;20057;-72
2022/12/23 04:52:43;;;;;;;25.42;11.05;;;;;;;10.94;100.00;100147.97;5027487;28;20049;-71
2022/12/23 04:55:09;;;;;;;17.08;7.45;;;;;;;10.94;100.00;100153.50;5010900;28;20457;-70
2022/12/23 04:57:36;;;;;;;24.58;11.00;;;;;;;10.94;100.00;100156.28;5017253;28;20077;-71
2022/12/23 05:00:04;;;;;;;17.75;7.97;;;;;;;10.93;100.00;100155.47;5031006;28;20045;-71
2022/12/23 05:02:30;;;;;;;20.90;8.80;;;;;;;10.95;100.00;100157.84;5015158;28;20736;-72
2022/12/23 05:04:57;;;;;;;36.30;17.10;;;;;;;11.00;100.00;100157.41;5027602;28;20128;-70
2022/12/23 05:07:23;;;;;;;41.33;19.17;;;;;;;11.02;100.00;100154.97;5025593;28;20052;-69
2022/12/23 05:09:50;;;;;;;18.20;7.47;;;;;;;10.96;100.00;100153.88;5012294;28;20053;-70
2022/12/23 05:12:16;;;;;;;30.90;14.98;;;;;;;10.98;100.00;100154.25;5019541;28;20057;-73
2022/12/23 05:14:43;;;;;;;26.98;10.43;;;;;;;10.98;100.00;100162.56;5011860;28;20054;-71
2022/12/23 05:17:09;;;;;;;24.60;9.38;;;;;;;10.94;100.00;100159.03;5024807;28;20057;-71
2022/12/23 05:19:36;;;;;;;36.28;15.90;;;;;;;11.00;100.00;100168.47;5027195;28;20053;-71
2022/12/23 05:22:02;;;;;;;25.73;10.65;;;;;;;10.89;100.00;100160.28;5018443;28;20049;-70
2022/12/23 05:24:29;;;;;;;13.65;5.88;;;;;;;10.92;100.00;100166.97;5014979;28;20456;-72
2022/12/23 05:26:55;;;;;;;13.25;5.03;;;;;;;10.94;100.00;100164.56;5015175;28;20060;-70
2022/12/23 05:29:26;;;;;;;33.60;15.15;;;;;;;10.97;100.00;100152.69;5023527;28;20088;-71
2022/12/23 05:31:53;;;;;;;24.20;9.98;;;;;;;10.96;100.00;100151.09;5012482;28;20500;-70
2022/12/23 05:34:20;;;;;;;23.40;9.52;;;;;;;10.97;100.00;100144.38;5009893;28;20050;-73
2022/12/23 05:36:46;;;;;;;27.52;9.82;;;;;;;10.95;100.00;100144.00;5028382;28;20058;-72
2022/12/23 05:39:13;;;;;;;21.75;7.03;;;;;;;10.94;100.00;100153.50;5030530;28;20042;-73
2022/12/23 05:41:39;;;;;;;25.95;10.40;;;;;;;10.96;100.00;100153.88;5029765;28;20060;-71
2022/12/23 05:44:06;;;;;;;11.75;4.97;;;;;;;10.91;100.00;100160.66;5015356;28;20580;-71
2022/12/23 05:46:33;;;;;;;24.38;9.15;;;;;;;10.94;100.00;100154.31;5011499;28;20526;-71
2022/12/23 05:48:59;;;;;;;4.88;2.42;;;;;;;10.92;100.00;100162.22;5012674;28;20057;-71
2022/12/23 05:51:26;;;;;;;11.27;4.88;;;;;;;10.88;100.00;100160.69;5023232;28;20053;-72
2022/12/23 05:53:52;;;;;;;13.90;5.53;;;;;;;10.89;100.00;100156.72;5017696;28;20046;-70
2022/12/23 05:56:19;;;;;;;18.65;8.23;;;;;;;10.95;100.00;100163.38;5018439;28;20049;-71
2022/12/23 05:58:45;;;;;;;14.82;5.40;;;;;;;10.85;100.00;100178.91;5019510;28;20802;-72
2022/12/23 06:01:13;;;;;;;20.48;7.32;;;;;;;10.89;100.00;100170.56;5029549;28;20129;-71
2022/12/23 06:03:39;;;;;;;12.88;4.10;;;;;;;10.88;100.00;100193.91;5008940;28;20050;-71
2022/12/23 06:06:07;;;;;;;10.38;3.85;;;;;;;10.85;100.00;100192.75;5002644;28;20045;-72
2022/12/23 06:08:33;;;;;;;15.45;5.80;;;;;;;10.84;100.00;100199.47;5008313;28;20116;-72
2022/12/23 06:11:03;;;;;;;10.68;4.88;;;;;;;10.90;100.00;100202.59;5021581;28;20049;-72
2022/12/23 06:13:30;;;;;;;11.85;4.80;;;;;;;10.87;100.00;100206.94;5022912;28;20050;-73
2022/12/23 06:15:56;;;;;;;21.42;7.93;;;;;;;10.86;100.00;100204.63;5022777;28;20140;-70
2022/12/23 06:18:23;;;;;;;11.77;5.15;;;;;;;10.87;100.00;100215.25;5020119;28;20049;-72
2022/12/23 06:20:49;;;;;;;25.35;10.10;;;;;;;10.91;100.00;100220.75;5012482;28;20504;-71
2022/12/23 06:23:16;;;;;;;9.82;3.90;;;;;;;10.87;100.00;100225.56;5008343;28;20065;-70
2022/12/23 06:25:42;;;;;;;18.95;8.25;;;;;;;10.89;100.00;100212.06;5018892;28;20129;-68
2022/12/23 06:28:09;;;;;;;15.00;6.13;;;;;;;10.88;100.00;100216.03;5022118;28;20725;-71
2022/12/23 06:30:35;;;;;;;33.97;15.32;;;;;;;10.92;100.00;100211.25;5020762;28;20077;-70
2022/12/23 06:33:02;;;;;;;17.23;6.57;;;;;;;10.87;100.00;100222.78;5025639;28;20048;-70
2022/12/23 06:35:28;;;;;;;18.70;8.23;;;;;;;10.89;100.00;100206.53;5014048;28;20065;-73
2022/12/23 06:37:55;;;;;;;41.03;17.75;;;;;;;10.92;100.00;100205.72;5009240;28;21882;-69
2022/12/23 06:40:21;;;;;;;28.40;11.00;;;;;;;10.89;100.00;100201.78;5006741;28;20072;-72
2022/12/23 06:42:48;;;;;;;35.50;14.70;;;;;;;10.92;100.00;100200.19;5008313;28;20052;-72
2022/12/23 06:45:15;;;;;;;20.55;6.97;;;;;;;10.88;100.00;100196.66;5014705;28;20046;-72
2022/12/23 06:47:41;;;;;;;31.00;14.05;;;;;;;10.88;100.00;100194.69;5003519;28;20045;-70
2022/12/23 06:50:08;;;;;;;26.67;12.10;;;;;;;10.86;100.00;100199.84;5021853;28;20063;-70
2022/12/23 06:52:34;;;;;;;24.63;10.73;;;;;;;10.81;100.00;100185.69;5020866;28;20133;-70
2022/12/23 06:55:01;;;;;;;17.08;7.18;;;;;;;10.86;100.00;100193.53;5009132;28;20046;-71
2022/12/23 06:57:27;;;;;;;32.75;15.15;;;;;;;10.88;100.00;100193.91;5016398;28;20045;-73
2022/12/23 06:59:54;;;;;;;26.98;11.55;;;;;;;10.87;100.00;100192.34;5007729;28;20042;-72
2022/12/23 07:02:21;;;;;;;17.20;7.05;;;;;;;10.80;100.00;100190.41;5007098;28;20096;-72
2022/12/23 07:04:47;;;;;;;22.15;9.38;;;;;;;10.87;100.00;100193.09;5012280;28;20650;-72
2022/12/23 07:07:14;;;;;;;22.40;9.70;;;;;;;10.85;100.00;100191.94;5016260;28;20046;-72
2022/12/23 07:09:40;;;;;;;20.25;6.28;;;;;;;10.85;100.00;100197.47;5003923;28;20744;-73
2022/12/23 07:12:07;;;;;;;27.40;12.68;;;;;;;10.87;100.00;100204.16;5018893;28;20495;-72
2022/12/23 07:14:33;;;;;;;21.83;9.73;;;;;;;10.87;100.00;100217.25;5010773;28;20068;-70
2022/12/23 07:17:00;;;;;;;24.52;9.20;;;;;;;10.86;100.00;100221.22;5020684;28;20045;-70
2022/12/23 07:19:26;;;;;;;15.25;5.53;;;;;;;10.84;100.00;100224.38;5012089;28;20492;-70
2022/12/23 07:21:53;;;;;;;19.98;8.75;;;;;;;10.84;100.00;100226.38;5007592;28;20046;-73
2022/12/23 07:24:19;;;;;;;15.40;6.55;;;;;;;10.83;100.00;100239.41;5014778;28;20042;-71
2022/12/23 07:26:46;;;;;;;31.25;12.88;;;;;;;10.83;100.00;100238.63;5019813;28;20053;-74
2022/12/23 07:29:12;;;;;;;27.85;13.43;;;;;;;10.81;100.00;100247.34;5011342;28;20075;-72
2022/12/23 07:31:39;;;;;;;17.75;6.53;;;;;;;10.80;100.00;100256.06;5017648;28;20056;-70
2022/12/23 07:34:07;;;;;;;36.22;14.90;;;;;;;10.82;100.00;100259.97;5024753;28;20046;-72
2022/12/23 07:36:34;;;;;;;13.77;5.60;;;;;;;10.75;100.00;100273.09;5006801;28;20522;-70
2022/12/23 07:39:00;;;;;;;20.05;7.13;;;;;;;10.74;100.00;100271.53;5009772;28;20125;-72
2022/12/23 07:41:27;;;;;;;11.45;5.07;;;;;;;10.79;100.00;100279.38;5006698;28;20149;-72
2022/12/23 07:43:53;;;;;;;30.27;12.25;;;;;;;10.82;100.00;100278.56;5004369;28;20062;-71
2022/12/23 07:46:20;;;;;;;13.18;5.95;;;;;;;10.78;100.00;100283.34;5012484;28;20145;-72
2022/12/23 07:48:46;;;;;;;32.22;13.52;;;;;;;10.81;100.00;100286.09;5023477;28;20693;-73
2022/12/23 07:51:13;;;;;;;14.18;5.90;;;;;;;10.77;100.00;100282.56;5021546;28;20108;-72
2022/12/23 07:53:40;;;;;;;16.83;6.93;;;;;;;10.81;100.00;100274.22;5019836;28;20070;-71
2022/12/23 07:56:06;;;;;;;31.15;12.43;;;;;;;10.84;100.00;100278.94;5016458;28;20080;-70
2022/12/23 07:58:33;;;;;;;35.50;15.27;;;;;;;10.84;100.00;100284.47;5005721;28;20135;-70
2022/12/23 08:01:01;;;;;;;23.38;9.05;;;;;;;10.82;100.00;100284.09;5007645;28;20045;-71
2022/12/23 08:03:29;;;;;;;32.25;13.85;;;;;;;10.81;100.00;100282.53;5011683;28;20140;-68
2022/12/23 08:06:07;;;;;;;25.48;10.88;;;;;;;10.79;100.00;100271.88;5007632;28;20053;-70
2022/12/23 08:08:36;;;;;;;20.60;8.65;;;;;;;10.80;100.00;100278.97;5004742;28;20057;-69
2022/12/23 08:11:04;;;;;;;26.92;7.55;;;;;;;10.77;100.00;100267.94;4995305;28;20053;-69
2022/12/23 08:13:34;;;;;;;41.15;17.00;;;;;;;10.83;100.00;100271.84;5025119;28;20049;-73
2022/12/23 08:16:02;;;;;;;32.55;14.27;;;;;;;10.81;100.00;100272.25;5011292;28;20054;-70
2022/12/23 08:18:31;;;;;;;36.95;15.50;;;;;;;10.84;100.00;100268.66;5002386;28;20054;-70
2022/12/23 08:21:02;;;;;;;11.43;4.28;;;;;;;10.76;100.00;100269.16;5008421;28;20053;-72
2022/12/23 08:23:30;;;;;;;11.23;4.65;;;;;;;10.79;100.00;100269.09;5006986;28;20116;-72
2022/12/23 08:26:12;;;;;;;19.60;7.72;;;;;;;10.78;100.00;100277.81;5006712;28;20073;-70
2022/12/23 08:28:40;;;;;;;35.97;13.85;;;;;;;10.76;100.00;100272.69;5024272;28;20046;-72
2022/12/23 08:31:15;;;;;;;49.95;19.92;;;;;;;10.82;100.00;100262.75;5011884;28;20057;-71
2022/12/23 08:33:44;;;;;;;17.52;6.68;;;;;;;10.73;100.00;100275.50;5010667;28;20046;-70
2022/12/23 08:36:17;;;;;;;28.02;10.20;;;;;;;10.77;100.00;100273.47;5014334;28;20061;-71
2022/12/23 08:38:51;;;;;;;32.47;13.88;;;;;;;10.81;100.00;100266.72;5009171;28;20045;-72
2022/12/23 08:41:22;;;;;;;40.67;12.55;;;;;;;10.82;100.00;100261.94;5007468;28;20046;-70
2022/12/23 08:43:48;;;;;;;19.38;9.02;;;;;;;10.79;100.00;100262.75;5014527;28;20050;-73
2022/12/23 08:46:15;;;;;;;30.10;11.32;;;;;;;10.80;100.00;100269.91;5006202;28;20042;-71
2022/12/23 08:48:42;;;;;;;18.98;8.88;;;;;;;10.79;100.00;100269.09;5006157;28;20488;-70
2022/12/23 08:51:16;;;;;;;25.55;9.73;;;;;;;10.80;100.00;100258.81;5014824;28;20054;-70
2022/12/23 08:53:43;;;;;;;45.75;18.75;;;;;;;10.86;100.00;100259.97;5011539;28;20046;-71
2022/12/23 08:56:21;;;;;;;26.95;10.30;;;;;;;10.73;100.00;100264.44;5007582;28;20046;-70
2022/12/23 08:58:51;;;;;;;38.28;14.07;;;;;;;10.82;100.00;100268.28;5016676;28;20057;-73
2022/12/23 09:01:20;;;;;;;21.25;7.63;;;;;;;10.81;100.00;100279.75;5015207;28;20057;-70
2022/12/23 09:03:48;;;;;;;49.95;18.48;;;;;;;10.85;100.00;100274.97;4998938;28;20041;-69
2022/12/23 09:06:20;;;;;;;30.45;13.18;;;;;;;10.76;100.00;100274.69;5012166;28;20061;-70
2022/12/23 09:08:54;;;;;;;39.53;17.42;;;;;;;10.88;100.00;100265.84;5026814;28;20060;-70
2022/12/23 09:11:24;;;;;;;49.17;18.90;;;;;;;10.88;100.00;100265.84;5007611;28;20069;-71
2022/12/23 09:13:50;;;;;;;55.50;20.25;;;;;;;10.90;100.00;100258.72;5015632;28;20053;-72
2022/12/23 09:16:17;;;;;;;32.20;11.00;;;;;;;10.87;100.00;100261.53;5012048;28;20046;-72
2022/12/23 09:18:44;;;;;;;43.53;17.63;;;;;;;10.92;100.00;100247.22;5009730;28;20053;-71
2022/12/23 09:21:13;;;;;;;52.50;19.70;;;;;;;10.94;100.00;100259.47;5016621;28;20057;-70
2022/12/23 09:23:40;;;;;;;22.35;9.02;;;;;;;10.85;100.00;100255.59;5007903;28;20492;-72
2022/12/23 09:26:08;;;;;;;55.40;16.88;;;;;;;10.91;100.00;100259.50;5019963;28;20053;-71
2022/12/23 09:28:35;;;;;;;46.05;18.65;;;;;;;10.94;100.00;100261.47;5017733;28;20504;-72
2022/12/23 09:31:07;;;;;;;48.53;19.63;;;;;;;10.94;100.00;100261.47;5009349;28;20046;-72
2022/12/23 09:33:34;;;;;;;45.10;17.30;;;;;;;10.88;100.00;100255.59;5007814;28;20405;-72
2022/12/23 09:36:02;;;;;;;42.50;15.52;;;;;;;10.86;100.00;100260.72;5004966;28;20430;-70
2022/12/23 09:38:29;;;;;;;32.10;11.23;;;;;;;10.81;100.00;100263.94;5011566;28;20064;-72
2022/12/23 09:41:10;;;;;;;44.92;18.88;;;;;;;10.86;100.00;100263.50;5005511;28;20053;-72
2022/12/23 09:43:57;;;;;;;25.63;8.65;;;;;;;10.79;100.00;100254.47;5004831;28;20516;-73
2022/12/23 09:46:28;;;;;;;42.20;15.63;;;;;;;10.81;100.00;100241.81;5015343;28;20062;-73
2022/12/23 09:49:01;;;;;;;39.92;17.40;;;;;;;10.84;100.00;100240.19;5009619;28;20053;-71
2022/12/23 09:51:29;;;;;;;48.08;18.77;;;;;;;10.84;100.00;100238.22;5017601;28;20054;-71
2022/12/23 09:54:16;;;;;;;42.97;17.48;;;;;;;10.84;100.00;100227.16;5010768;28;20080;-71
2022/12/23 09:57:15;;;;;;;25.85;5.63;;;;;;;10.77;100.00;100230.00;5011812;28;20508;-71
2022/12/23 09:59:44;;;;;;;28.17;8.10;;;;;;;10.76;100.00;100222.09;5007214;28;20056;-71
2022/12/23 10:02:29;;;;;;;42.92;15.10;;;;;;;10.80;100.00;100231.91;5012371;28;20053;-73
2022/12/23 10:05:18;;;;;;;21.02;8.48;;;;;;;10.79;100.00;100240.63;5014080;28;20060;-72
2022/12/23 10:08:17;;;;;;;37.25;13.00;;;;;;;10.77;100.00;100231.97;5024221;28;20053;-71
2022/12/23 10:10:48;;;;;;;35.40;15.23;;;;;;;10.83;100.00;100225.56;5016532;28;20100;-73
2022/12/23 10:13:28;;;;;;;47.97;17.15;;;;;;;10.85;100.00;100230.69;5003204;28;20087;-71
2022/12/23 10:16:02;;;;;;;39.88;18.50;;;;;;;10.90;100.00;100233.03;5010304;28;20046;-71
2022/12/23 10:18:41;;;;;;;40.58;14.75;;;;;;;10.89;100.00;100236.97;5003170;28;20041;-70
2022/12/23 10:21:23;;;;;;;40.10;15.35;;;;;;;10.87;100.00;100225.56;5008877;28;20516;-70
2022/12/23 10:23:52;;;;;;;36.58;14.15;;;;;;;10.87;100.00;100220.78;5016697;28;20088;-71
2022/12/23 10:26:30;;;;;;;40.72;15.52;;;;;;;10.88;100.00;100208.53;5009497;28;20050;-72
2022/12/23 10:29:14;;;;;;;42.45;16.35;;;;;;;10.91;100.00;100206.91;5018674;28;20054;-70
2022/12/23 10:31:58;;;;;;;40.63;17.85;;;;;;;10.93;100.00;100196.22;5014902;28;20056;-72
2022/12/23 10:34:31;;;;;;;41.65;17.02;;;;;;;10.90;100.00;100181.22;5008123;28;20053;-72
2022/12/23 10:37:20;;;;;;;40.22;16.88;;;;;;;10.94;100.00;100176.44;5013368;28;20497;-72
2022/12/23 10:39:55;;;;;;;38.20;15.50;;;;;;;10.90;100.00;100164.59;5003686;28;20053;-70
2022/12/23 10:42:40;;;;;;;45.80;18.48;;;;;;;10.95;100.00;100163.38;5001482;28;20484;-72
2022/12/23 10:45:24;;;;;;;49.00;18.38;;;;;;;10.96;100.00;100146.34;5012855;28;20055;-72
2022/12/23 10:48:03;;;;;;;50.05;19.17;;;;;;;10.98;100.00;100140.41;5013014;28;20057;-73
2022/12/23 10:50:52;;;;;;;44.17;16.42;;;;;;;10.98;100.00;100141.19;5019960;28;20060;-73
2022/12/23 10:53:29;;;;;;;40.78;17.15;;;;;;;10.95;100.00;100146.75;5004780;28;20053;-71
2022/12/23 10:55:57;;;;;;;40.35;18.38;;;;;;;10.99;100.00;100131.69;5008863;28;20062;-71
2022/12/23 10:58:25;;;;;;;46.20;16.50;;;;;;;10.96;100.00;100137.25;5008593;28;20129;-70
2022/12/23 11:00:58;;;;;;;62.50;22.67;;;;;;;11.03;100.00;100145.50;5013697;28;20519;-71
2022/12/23 11:03:32;;;;;;;48.00;19.17;;;;;;;11.06;100.00;100144.66;4999891;28;20138;-71
2022/12/23 11:06:00;;;;;;;46.00;18.90;;;;;;;11.02;100.00;100143.91;4998957;28;20049;-72
2022/12/23 11:08:29;;;;;;;49.90;23.58;;;;;;;11.08;100.00;100143.06;5007743;28;20050;-70
2022/12/23 11:10:59;;;;;;;42.72;20.70;;;;;;;11.12;100.00;100135.50;5003489;28;20138;-71
2022/12/23 11:13:34;;;;;;;44.08;19.15;;;;;;;11.16;100.00;100124.34;5005742;28;20136;-73
2022/12/23 11:16:11;;;;;;;40.72;16.92;;;;;;;11.11;100.00;100125.63;5003680;28;20057;-72
2022/12/23 11:18:51;;;;;;;45.03;17.92;;;;;;;11.09;100.00;100114.16;4970573;28;20053;-73
2022/12/23 11:21:18;;;;;;;38.75;16.38;;;;;;;11.07;100.00;100113.03;4983105;28;20054;-72
2022/12/23 11:23:45;;;;;;;42.92;17.27;;;;;;;11.08;100.00;100104.31;4980860;28;20049;-73
2022/12/23 11:26:17;;;;;;;40.50;17.25;;;;;;;11.13;100.00;100106.59;4986134;28;20713;-72
2022/12/23 11:28:50;;;;;;;39.17;16.33;;;;;;;11.18;100.00;100094.28;4981476;28;20046;-72
2022/12/23 11:31:32;;;;;;;42.63;16.60;;;;;;;11.19;100.00;100093.06;4983990;28;21203;-72
2022/12/23 11:34:02;;;;;;;35.42;16.40;;;;;;;11.20;100.00;100097.44;4983617;28;20046;-72
2022/12/23 11:36:31;;;;;;;38.42;16.88;;;;;;;11.22;100.00;100095.00;4983301;28;20054;-72
2022/12/23 11:39:13;;;;;;;33.33;14.38;;;;;;;11.21;100.00;100098.97;4992393;28;20053;-72
2022/12/23 11:41:46;;;;;;;34.67;15.20;;;;;;;11.23;100.00;100099.34;4984146;28;20057;-70
2022/12/23 11:44:30;;;;;;;42.17;17.42;;;;;;;11.25;100.00;100091.41;4986199;28;20045;-71
2022/12/23 11:47:15;;;;;;;37.95;16.45;;;;;;;11.30;100.00;100082.66;4991211;28;20069;-74
2022/12/23 11:49:49;;;;;;;35.13;16.02;;;;;;;11.27;100.00;100084.25;4988303;28;20057;-72
2022/12/23 11:52:19;;;;;;;30.95;11.95;;;;;;;11.24;100.00;100076.78;4986201;28;20159;-72
2022/12/23 11:54:52;;;;;;;37.40;14.88;;;;;;;11.28;100.00;100077.53;4984449;28;20052;-71